createdAt,value
2024-02-29T00:01:27.524Z,33.90
2024-02-29T00:03:57.035Z,34.58
2024-02-29T00:06:25.450Z,33.38
2024-02-29T00:08:53.640Z,32.97
2024-02-29T00:11:22.394Z,35.38
2024-02-29T00:13:50.600Z,35.58
2024-02-29T00:16:19.701Z,36.80
2024-02-29T00:18:48.595Z,34.45
2024-02-29T00:21:18.369Z,37.38
2024-02-29T00:23:46.526Z,33.35
2024-02-29T00:26:16.693Z,32.53
2024-02-29T00:28:44.862Z,38.20
2024-02-29T00:31:13.210Z,36.13
2024-02-29T00:33:42.437Z,33.97
2024-02-29T00:36:10.823Z,35.20
2024-02-29T00:38:40.709Z,37.88
2024-02-29T00:41:09.412Z,32.33
2024-02-29T00:43:37.747Z,33.88
2024-02-29T00:46:06.337Z,34.50
2024-02-29T00:48:34.498Z,36.67
2024-02-29T00:51:03.211Z,33.10
2024-02-29T00:53:31.519Z,36.38
2024-02-29T00:56:01.038Z,40.15
2024-02-29T00:58:29.094Z,37.65
2024-02-29T01:00:57.524Z,38.10
2024-02-29T01:03:25.826Z,34.15
2024-02-29T01:05:53.924Z,34.00
2024-02-29T01:08:22.090Z,40.92
2024-02-29T01:10:50.385Z,34.72
2024-02-29T01:13:19.901Z,32.28
2024-02-29T01:15:50.301Z,32.17
2024-02-29T01:18:18.648Z,33.90
2024-02-29T01:20:46.758Z,35.72
2024-02-29T01:23:15.037Z,30.55
2024-02-29T01:25:43.440Z,33.78
2024-02-29T01:28:11.693Z,33.28
2024-02-29T01:30:41.288Z,31.83
2024-02-29T01:33:09.734Z,32.83
2024-02-29T01:35:38.998Z,39.95
2024-02-29T01:38:07.237Z,39.88
2024-02-29T01:40:35.537Z,37.42
2024-02-29T01:43:04.051Z,40.03
2024-02-29T01:45:32.340Z,36.22
2024-02-29T01:48:01.868Z,34.47
2024-02-29T01:50:30.904Z,37.17
2024-02-29T01:52:59.010Z,36.38
2024-02-29T01:55:27.212Z,41.75
2024-02-29T01:57:55.411Z,39.35
2024-02-29T02:00:23.824Z,38.63
2024-02-29T02:02:52.338Z,35.80
2024-02-29T02:05:22.131Z,35.30
2024-02-29T02:07:51.394Z,36.08
2024-02-29T02:10:19.592Z,34.03
2024-02-29T02:12:49.204Z,37.95
2024-02-29T02:15:17.766Z,35.00
2024-02-29T02:17:46.587Z,35.65
2024-02-29T02:20:19.106Z,36.65
2024-02-29T02:22:47.387Z,35.78
2024-02-29T02:25:15.504Z,37.95
2024-02-29T02:27:43.980Z,36.90
2024-02-29T02:30:13.041Z,35.65
2024-02-29T02:32:41.566Z,38.30
2024-02-29T02:35:10.402Z,37.20
2024-02-29T02:37:40.669Z,39.97
2024-02-29T02:40:09.686Z,38.95
2024-02-29T02:42:37.893Z,37.65
2024-02-29T02:45:06.845Z,36.05
2024-02-29T02:47:35.057Z,38.35
2024-02-29T02:50:03.318Z,40.40
2024-02-29T02:52:31.437Z,40.67
2024-02-29T02:55:01.021Z,37.80
2024-02-29T02:57:29.165Z,38.45
2024-02-29T02:59:57.356Z,39.70
2024-02-29T03:02:25.442Z,42.47
2024-02-29T03:04:53.721Z,40.80
2024-02-29T03:07:21.966Z,39.53
2024-02-29T03:09:50.095Z,40.42
2024-02-29T03:12:20.042Z,39.10
2024-02-29T03:14:48.176Z,45.40
2024-02-29T03:17:16.315Z,36.20
2024-02-29T03:19:44.405Z,39.40
2024-02-29T03:22:12.659Z,35.22
2024-02-29T03:24:43.538Z,36.95
2024-02-29T03:27:12.424Z,41.45
2024-02-29T03:29:42.215Z,45.90
2024-02-29T03:32:11.547Z,42.90
2024-02-29T03:34:40.226Z,40.42
2024-02-29T03:37:09.213Z,41.80
2024-02-29T03:39:37.793Z,40.58
2024-02-29T03:42:05.990Z,38.75
2024-02-29T03:44:34.555Z,43.83
2024-02-29T03:47:04.242Z,43.30
2024-02-29T03:49:32.403Z,42.55
2024-02-29T03:52:00.606Z,41.25
2024-02-29T03:54:29.314Z,43.42
2024-02-29T03:56:57.479Z,40.72
2024-02-29T03:59:26.083Z,43.35
2024-02-29T04:01:54.633Z,34.35
2024-02-29T04:04:24.365Z,39.78
2024-02-29T04:06:52.584Z,43.13
2024-02-29T04:09:20.713Z,43.58
2024-02-29T04:11:49.076Z,41.05
2024-02-29T04:14:17.388Z,38.25
2024-02-29T04:16:45.749Z,37.50
2024-02-29T04:19:14.069Z,42.50
2024-02-29T04:21:47.402Z,38.63
2024-02-29T04:24:16.055Z,38.38
2024-02-29T04:26:44.152Z,37.05
2024-02-29T04:29:12.217Z,36.90
2024-02-29T04:31:40.307Z,39.85
2024-02-29T04:34:08.400Z,37.90
2024-02-29T04:36:36.611Z,36.92
2024-02-29T04:39:06.052Z,39.08
2024-02-29T04:41:34.205Z,37.20
2024-02-29T04:44:02.340Z,38.58
2024-02-29T04:46:30.563Z,40.63
2024-02-29T04:48:58.739Z,38.53
2024-02-29T04:51:27.040Z,41.58
2024-02-29T04:53:55.167Z,36.28
2024-02-29T04:56:24.713Z,39.80
2024-02-29T04:58:52.853Z,40.08
2024-02-29T05:01:21.117Z,39.70
2024-02-29T05:03:49.366Z,40.45
2024-02-29T05:06:18.108Z,43.05
2024-02-29T05:08:46.239Z,44.38
2024-02-29T05:11:14.939Z,36.90
2024-02-29T05:13:44.681Z,43.22
2024-02-29T05:16:21.398Z,42.03
2024-02-29T05:18:49.808Z,46.08
2024-02-29T05:21:17.936Z,42.95
2024-02-29T05:23:46.063Z,44.72
2024-02-29T05:26:14.094Z,39.97
2024-02-29T05:28:42.257Z,44.17
2024-02-29T05:31:11.771Z,40.55
2024-02-29T05:33:42.734Z,44.85
2024-02-29T05:36:10.884Z,38.28
2024-02-29T05:38:38.950Z,46.00
2024-02-29T05:41:07.628Z,40.72
2024-02-29T05:43:36.665Z,45.47
2024-02-29T05:46:05.146Z,41.28
2024-02-29T05:48:36.762Z,42.67
2024-02-29T05:51:05.474Z,43.80
2024-02-29T05:53:33.623Z,43.13
2024-02-29T05:56:01.886Z,37.67
2024-02-29T05:58:32.193Z,43.65
2024-02-29T06:01:00.811Z,40.42
2024-02-29T06:03:28.985Z,36.00
2024-02-29T06:06:00.788Z,38.30
2024-02-29T06:08:29.901Z,36.90
2024-02-29T06:10:58.203Z,39.88
2024-02-29T06:13:26.525Z,50.75
2024-02-29T06:15:54.673Z,41.33
2024-02-29T06:18:22.779Z,39.90
2024-02-29T06:20:50.913Z,40.10
2024-02-29T06:23:20.568Z,39.03
2024-02-29T06:25:50.930Z,37.80
2024-02-29T06:28:23.947Z,40.95
2024-02-29T06:30:52.678Z,37.50
2024-02-29T06:33:20.966Z,36.55
2024-02-29T06:35:49.120Z,36.08
2024-02-29T06:38:18.162Z,38.92
2024-02-29T06:40:48.060Z,41.58
2024-02-29T06:43:16.738Z,43.50
2024-02-29T06:45:48.943Z,45.40
2024-02-29T06:48:18.669Z,43.60
2024-02-29T06:50:47.226Z,42.53
2024-02-29T06:53:15.566Z,37.38
2024-02-29T06:55:43.743Z,39.85
2024-02-29T06:58:13.262Z,37.17
2024-02-29T07:00:41.802Z,40.00
2024-02-29T07:03:10.605Z,39.75
2024-02-29T07:05:38.972Z,36.63
2024-02-29T07:08:07.670Z,38.10
2024-02-29T07:10:35.767Z,37.92
2024-02-29T07:13:03.974Z,43.10
2024-02-29T07:15:33.984Z,36.40
2024-02-29T07:18:02.651Z,41.42
2024-02-29T07:20:30.797Z,38.45
2024-02-29T07:22:58.894Z,41.22
2024-02-29T07:25:28.840Z,39.35
2024-02-29T07:27:58.535Z,38.80
2024-02-29T07:30:28.180Z,38.05
2024-02-29T07:32:59.081Z,35.38
2024-02-29T07:35:27.343Z,37.83
2024-02-29T07:37:55.759Z,36.00
2024-02-29T07:40:24.034Z,35.97
2024-02-29T07:42:52.215Z,31.77
2024-02-29T07:45:21.385Z,33.08
2024-02-29T07:47:50.298Z,36.42
2024-02-29T07:50:20.649Z,38.67
2024-02-29T07:52:49.563Z,37.65
2024-02-29T07:55:18.279Z,32.55
2024-02-29T07:57:47.814Z,35.55
2024-02-29T08:00:16.777Z,31.67
2024-02-29T08:02:47.519Z,32.20
2024-02-29T08:05:16.145Z,32.90
2024-02-29T08:07:47.846Z,32.95
2024-02-29T08:10:18.036Z,35.22
2024-02-29T08:12:46.627Z,34.58
2024-02-29T08:15:16.059Z,32.25
2024-02-29T08:17:44.222Z,38.50
2024-02-29T08:20:12.872Z,40.13
2024-02-29T08:22:41.060Z,33.65
2024-02-29T08:25:11.207Z,36.08
2024-02-29T08:27:39.407Z,31.52
2024-02-29T08:30:08.838Z,34.20
2024-02-29T08:32:36.970Z,33.17
2024-02-29T08:35:05.729Z,33.50
2024-02-29T08:37:33.767Z,33.65
2024-02-29T08:40:03.157Z,32.22
2024-02-29T08:42:32.897Z,33.60
2024-02-29T08:45:01.141Z,36.65
2024-02-29T08:47:29.447Z,34.40
2024-02-29T08:49:57.617Z,36.38
2024-02-29T08:52:27.335Z,28.98
2024-02-29T08:54:55.503Z,32.05
2024-02-29T08:57:23.829Z,29.58
2024-02-29T08:59:53.274Z,29.25
2024-02-29T09:02:21.417Z,30.38
2024-02-29T09:04:49.739Z,28.88
2024-02-29T09:07:17.923Z,24.90
2024-02-29T09:09:46.134Z,27.60
2024-02-29T09:12:16.034Z,39.22
2024-02-29T09:14:44.099Z,28.80
2024-02-29T09:17:13.712Z,26.52
2024-02-29T09:19:41.908Z,27.30
2024-02-29T09:22:10.084Z,26.65
2024-02-29T09:24:38.279Z,28.95
2024-02-29T09:27:06.719Z,26.38
2024-02-29T09:29:35.054Z,23.23
2024-02-29T09:32:04.702Z,26.65
2024-02-29T09:34:38.400Z,22.35
2024-02-29T09:37:08.011Z,21.95
2024-02-29T09:39:36.242Z,22.48
2024-02-29T09:44:36.322Z,21.65
2024-02-29T09:47:05.184Z,20.95
2024-02-29T09:49:34.695Z,19.52
2024-02-29T09:52:03.208Z,19.60
2024-02-29T09:54:35.872Z,20.02
2024-02-29T09:57:04.383Z,18.38
2024-02-29T09:59:33.768Z,19.25
2024-02-29T10:02:02.582Z,19.48
2024-02-29T10:04:30.981Z,18.60
2024-02-29T10:07:00.866Z,17.05
2024-02-29T10:09:31.461Z,19.08
2024-02-29T10:12:01.045Z,18.05
2024-02-29T10:14:31.628Z,16.67
2024-02-29T10:16:59.943Z,16.80
2024-02-29T10:19:28.154Z,16.55
2024-02-29T10:21:57.518Z,26.02
2024-02-29T10:24:27.088Z,16.90
2024-02-29T10:27:02.346Z,17.70
2024-02-29T10:29:31.542Z,17.42
2024-02-29T10:32:00.713Z,42.53
2024-02-29T10:34:28.875Z,15.65
2024-02-29T10:36:57.177Z,85.57
2024-02-29T10:39:27.394Z,16.67
2024-02-29T10:41:59.674Z,14.05
2024-02-29T10:44:32.803Z,17.27
2024-02-29T10:47:05.037Z,13.82
2024-02-29T10:49:37.380Z,14.05
2024-02-29T10:52:10.491Z,14.48
2024-02-29T10:54:48.378Z,12.90
2024-02-29T10:57:17.441Z,11.55
2024-02-29T10:59:53.681Z,13.73
2024-02-29T11:02:22.720Z,12.07
2024-02-29T11:04:50.925Z,16.23
2024-02-29T11:07:20.279Z,18.48
2024-02-29T11:09:50.159Z,16.15
2024-02-29T11:12:19.221Z,17.05
2024-02-29T11:14:49.938Z,18.17
2024-02-29T11:17:18.303Z,15.48
2024-02-29T11:19:51.986Z,18.40
2024-02-29T11:22:33.941Z,17.08
2024-02-29T11:25:10.168Z,21.35
2024-02-29T11:30:08.302Z,22.98
2024-02-29T11:32:36.528Z,17.65
2024-02-29T11:35:05.426Z,20.30
2024-02-29T11:37:36.426Z,14.73
2024-02-29T11:40:08.457Z,15.75
2024-02-29T11:42:38.850Z,39.95
2024-02-29T11:45:08.390Z,20.50
2024-02-29T11:47:36.944Z,38.17
2024-02-29T11:50:07.263Z,17.77
2024-02-29T11:52:35.434Z,18.50
2024-02-29T11:55:05.646Z,19.67
2024-02-29T11:57:34.753Z,18.55
2024-02-29T12:00:02.916Z,19.25
2024-02-29T12:02:33.291Z,19.92
2024-02-29T12:05:01.409Z,15.55
2024-02-29T12:07:29.860Z,18.40
2024-02-29T12:10:08.577Z,24.30
2024-02-29T17:27:59.442Z,24.85
2024-02-29T17:30:27.672Z,29.98
2024-02-29T17:32:55.749Z,16.40
2024-02-29T17:35:23.990Z,20.30
2024-02-29T17:37:52.100Z,28.25
2024-02-29T17:40:20.444Z,19.33
2024-02-29T17:42:48.583Z,16.63
2024-02-29T17:45:18.223Z,16.80
2024-02-29T17:47:46.825Z,18.08
2024-02-29T17:50:17.628Z,21.08
2024-02-29T17:52:45.957Z,20.33
2024-02-29T17:55:16.664Z,18.45
2024-02-29T17:57:44.850Z,20.17
2024-02-29T18:00:15.286Z,19.55
2024-02-29T18:02:44.857Z,20.83
2024-02-29T18:05:14.888Z,16.83
2024-02-29T18:07:50.557Z,20.45
2024-02-29T18:10:23.875Z,20.58
2024-02-29T18:12:52.290Z,17.38
2024-02-29T18:15:20.399Z,24.70
2024-02-29T18:17:50.317Z,19.23
2024-02-29T18:20:18.893Z,19.65
2024-02-29T18:22:47.172Z,17.83
2024-02-29T18:25:15.324Z,22.73
2024-02-29T18:27:43.734Z,19.65
2024-02-29T18:30:13.232Z,19.98
2024-02-29T18:32:41.488Z,20.77
2024-02-29T18:35:11.571Z,24.08
2024-02-29T18:37:41.173Z,18.98
2024-02-29T18:40:12.223Z,23.48
2024-02-29T18:42:40.622Z,20.45
2024-02-29T18:45:09.752Z,22.95
2024-02-29T18:47:38.037Z,21.05
2024-02-29T18:50:07.657Z,19.60
2024-02-29T18:52:37.219Z,22.70
2024-02-29T18:55:08.856Z,17.17
2024-02-29T18:57:37.373Z,20.55
2024-02-29T19:00:07.479Z,25.05
2024-02-29T19:02:35.649Z,18.38
2024-02-29T19:05:03.887Z,21.20
2024-02-29T19:07:32.227Z,17.70
2024-02-29T19:10:01.780Z,21.13
2024-02-29T19:12:29.963Z,18.85
2024-02-29T19:14:58.472Z,25.05
2024-02-29T19:17:26.586Z,23.88
2024-02-29T19:19:55.558Z,21.05
2024-02-29T19:22:23.840Z,27.65
2024-02-29T19:24:52.151Z,42.38
2024-02-29T19:27:23.366Z,61.83
2024-02-29T19:29:53.512Z,64.85
2024-02-29T19:32:21.922Z,43.38
2024-02-29T19:34:50.840Z,27.38
2024-02-29T19:37:19.085Z,25.10
2024-02-29T19:39:48.192Z,25.58
2024-02-29T19:42:16.608Z,30.83
2024-02-29T19:44:46.094Z,21.58
2024-02-29T19:47:14.556Z,26.88
2024-02-29T19:49:42.665Z,19.75
2024-02-29T19:52:11.151Z,20.63
2024-02-29T19:54:40.011Z,28.65
2024-02-29T19:57:08.205Z,23.90
2024-02-29T19:59:36.372Z,23.58
2024-02-29T20:02:06.363Z,27.52
2024-02-29T20:04:34.581Z,27.48
2024-02-29T20:07:02.754Z,31.35
2024-02-29T20:09:30.916Z,34.13
2024-02-29T20:11:59.060Z,35.90
2024-02-29T20:14:27.279Z,35.80
2024-02-29T20:16:55.342Z,34.33
2024-02-29T20:19:24.794Z,30.98
2024-02-29T20:21:53.013Z,30.67
2024-02-29T20:24:21.196Z,23.13
2024-02-29T20:26:49.295Z,22.63
2024-02-29T20:29:17.429Z,21.27
2024-02-29T20:31:45.568Z,27.25
2024-02-29T20:34:14.204Z,28.05
2024-02-29T20:36:44.836Z,25.98
2024-02-29T20:39:13.813Z,32.90
2024-02-29T20:41:42.130Z,30.00
2024-02-29T20:44:10.585Z,29.50
2024-02-29T20:46:39.183Z,42.05
2024-02-29T20:49:07.449Z,27.40
2024-02-29T20:51:35.555Z,41.38
2024-02-29T20:54:05.187Z,39.85
2024-02-29T20:56:33.769Z,38.88
2024-02-29T20:59:03.122Z,91.20
2024-02-29T21:01:31.440Z,143.45
2024-02-29T21:03:59.802Z,70.82
2024-02-29T21:06:28.110Z,99.93
2024-02-29T21:08:56.201Z,75.78
2024-02-29T21:11:25.807Z,57.35
2024-02-29T21:13:55.535Z,60.20
2024-02-29T21:16:24.039Z,46.00
2024-02-29T21:18:52.303Z,37.72
2024-02-29T21:21:20.606Z,28.85
2024-02-29T21:23:48.918Z,30.48
2024-02-29T21:26:18.392Z,38.65
2024-02-29T21:28:49.552Z,27.92
2024-02-29T21:31:18.000Z,32.35
2024-02-29T21:33:46.179Z,30.05
2024-02-29T21:36:15.237Z,27.00
2024-02-29T21:38:44.561Z,28.90
2024-02-29T21:41:12.824Z,31.70
2024-02-29T21:43:41.170Z,33.70
2024-02-29T21:46:13.654Z,33.80
2024-02-29T21:48:41.777Z,34.03
2024-02-29T21:51:10.146Z,30.50
2024-02-29T21:53:38.321Z,27.83
2024-02-29T21:56:12.806Z,29.83
2024-02-29T21:58:40.970Z,26.77
2024-02-29T22:01:12.124Z,31.15
2024-02-29T22:03:40.612Z,33.00
2024-02-29T22:06:09.296Z,23.73
2024-02-29T22:08:37.549Z,22.52
2024-02-29T22:11:06.119Z,24.77
2024-02-29T22:13:34.707Z,20.05
2024-02-29T22:16:03.582Z,20.00
2024-02-29T22:18:33.153Z,17.83
2024-02-29T22:21:01.383Z,16.52
2024-02-29T22:23:30.501Z,19.25
2024-02-29T22:25:58.816Z,17.45
2024-02-29T22:28:27.013Z,14.63
2024-02-29T22:30:55.153Z,16.23
2024-02-29T22:33:23.435Z,19.55
2024-02-29T22:35:52.952Z,21.08
2024-02-29T22:38:21.037Z,21.17
2024-02-29T22:40:49.191Z,21.50
2024-02-29T22:43:18.258Z,16.38
2024-02-29T22:45:46.461Z,13.50
2024-02-29T22:48:14.988Z,18.70
2024-02-29T22:50:43.165Z,24.08
2024-02-29T22:53:13.006Z,20.17
2024-02-29T22:55:41.295Z,20.88
2024-02-29T22:58:09.464Z,17.13
2024-02-29T23:00:37.839Z,17.35
2024-02-29T23:03:06.466Z,14.00
2024-02-29T23:05:34.741Z,17.95
2024-02-29T23:08:03.038Z,16.70
2024-02-29T23:10:32.599Z,17.08
2024-02-29T23:13:00.792Z,14.65
2024-02-29T23:15:29.525Z,15.40
2024-02-29T23:17:57.602Z,16.25
2024-02-29T23:20:25.789Z,21.35
2024-02-29T23:22:54.242Z,23.77
2024-02-29T23:25:25.054Z,20.95
2024-02-29T23:27:55.218Z,33.10
2024-02-29T23:30:23.714Z,30.02
2024-02-29T23:32:52.024Z,26.35
2024-02-29T23:35:20.467Z,27.17
2024-02-29T23:37:48.716Z,29.95
2024-02-29T23:40:17.021Z,27.87
2024-02-29T23:42:45.787Z,25.38
2024-02-29T23:45:16.429Z,26.02
2024-02-29T23:47:45.825Z,29.03
2024-02-29T23:50:13.989Z,26.20
2024-02-29T23:52:42.187Z,24.20
2024-02-29T23:55:11.060Z,26.27
2024-02-29T23:57:39.265Z,23.83
